Time;durP1;ratioP1;P1;durP2;ratioP2;P2;SDS_P1;SDS_P2;PMS_P1;PMS_P2;Temp;Humidity;BMP_temperature;BMP_pressure;BME280_temperature;BME280_humidity;BME280_pressure;Samples;Min_cycle;Max_cycle;Signal;HPM_P1;HPM_P2
2024/02/29 00:01:24;;;;;;;;;10.33;9.00;;;;;13.10;100.00;101071.28;6226157;22;45347;-82
2024/02/29 00:03:49;;;;;;;;;11.33;8.67;;;;;13.01;100.00;101074.78;6226158;22;45270;-83
2024/02/29 00:06:14;;;;;;;;;13.33;9.67;;;;;12.98;100.00;101070.28;6250549;22;45274;-83
2024/02/29 00:08:40;;;;;;;;;10.00;9.33;;;;;12.93;100.00;101055.13;6253554;22;45306;-82
2024/02/29 00:11:05;;;;;;;;;12.00;11.33;;;;;12.84;100.00;101037.22;6226794;22;45362;-82
2024/02/29 00:13:31;;;;;;;;;11.00;9.67;;;;;12.93;100.00;101048.00;6253209;22;45391;-83
2024/02/29 00:15:57;;;;;;;;;13.67;9.67;;;;;13.00;100.00;101055.16;6225407;22;46927;-82
2024/02/29 00:18:23;;;;;;;;;9.67;9.67;;;;;12.94;100.00;101046.22;6223820;22;45696;-83
2024/02/29 00:20:48;;;;;;;;;14.00;11.00;;;;;13.10;100.00;101048.13;6248832;22;45214;-82
2024/02/29 00:23:13;;;;;;;;;11.00;9.00;;;;;13.12;100.00;101049.03;6222718;22;45292;-85
2024/02/29 00:25:39;;;;;;;;;9.00;9.00;;;;;13.19;100.00;101039.34;6219712;22;47809;-85
2024/02/29 00:28:05;;;;;;;;;11.00;10.33;;;;;13.11;100.00;101033.00;6220429;22;44803;-85
2024/02/29 00:30:30;;;;;;;;;9.00;9.00;;;;;13.06;100.00;101035.66;6221105;22;45284;-83
2024/02/29 00:32:56;;;;;;;;;10.67;8.67;;;;;13.02;100.00;101036.50;6249014;22;45280;-84
2024/02/29 00:35:22;;;;;;;;;7.33;5.33;;;;;13.02;100.00;101034.72;6250791;22;45453;-84
2024/02/29 00:37:48;;;;;;;;;10.33;8.67;;;;;13.04;100.00;101017.81;6222685;22;45452;-82
2024/02/29 00:40:19;;;;;;;;;12.67;11.00;;;;;13.28;100.00;101020.69;6224105;22;45264;-82
2024/02/29 00:42:44;;;;;;;;;11.33;11.33;;;;;13.09;100.00;101013.41;6225428;22;45423;-82
2024/02/29 00:45:16;;;;;;;;;9.00;9.00;;;;;13.28;100.00;101004.66;6249234;22;45394;-82
2024/02/29 00:47:41;;;;;;;;;9.00;9.00;;;;;13.06;100.00;101013.41;6247217;22;44709;-82
2024/02/29 00:50:07;;;;;;;;;9.67;9.67;;;;;13.08;100.00;100999.16;6222913;22;45320;-82
2024/02/29 00:52:33;;;;;;;;;10.00;10.00;;;;;13.04;100.00;100999.13;6221444;22;45431;-79
2024/02/29 00:54:58;;;;;;;;;10.00;10.00;;;;;12.98;100.00;100995.53;6215528;22;46753;-79
2024/02/29 00:57:24;;;;;;;;;15.00;9.00;;;;;12.98;100.00;100992.84;6220353;22;45318;-82
2024/02/29 00:59:49;;;;;;;;;10.00;8.67;;;;;13.01;100.00;100984.88;6193358;22;45275;-82
2024/02/29 01:02:14;;;;;;;;;8.33;8.00;;;;;13.05;100.00;100984.88;6194316;22;45431;-82
2024/02/29 01:04:40;;;;;;;;;9.33;9.00;;;;;13.01;100.00;100976.88;6225471;22;45685;-82
2024/02/29 01:07:05;;;;;;;;;10.00;10.00;;;;;12.98;100.00;100978.63;6221724;22;45475;-84
2024/02/29 01:09:31;;;;;;;;;9.67;8.00;;;;;12.98;100.00;100975.94;6219712;22;45388;-83
2024/02/29 01:11:56;;;;;;;;;8.00;8.00;;;;;12.91;100.00;100968.78;6194257;22;45344;-84
2024/02/29 01:14:21;;;;;;;;;7.67;7.33;;;;;12.87;100.00;100954.53;6194084;22;47265;-83
2024/02/29 01:16:47;;;;;;;;;8.00;8.00;;;;;12.91;100.00;100960.78;6194063;22;45425;-84
2024/02/29 01:19:12;;;;;;;;;9.33;7.67;;;;;12.93;100.00;100954.56;6194062;22;45420;-83
2024/02/29 01:21:38;;;;;;;;;8.00;7.00;;;;;12.96;100.00;100956.34;6193908;22;45396;-83
2024/02/29 01:24:05;;;;;;;;;9.00;7.00;;;;;12.96;100.00;100940.34;6192039;22;47107;-84
2024/02/29 01:26:32;;;;;;;;;8.33;7.67;;;;;12.99;100.00;100937.72;6191248;22;45369;-84
2024/02/29 01:32:20;;;;;;;;;8.00;8.00;;;;;12.94;100.00;100940.31;6219444;22;45309;-84
2024/02/29 01:34:46;;;;;;;;;10.00;8.33;;;;;12.93;100.00;100926.97;6191898;22;48396;-83
2024/02/29 01:37:12;;;;;;;;;8.67;8.33;;;;;12.95;100.00;100935.91;6217802;22;45376;-83
2024/02/29 01:39:37;;;;;;;;;8.00;7.00;;;;;12.94;100.00;100921.63;6191133;22;45254;-84
2024/02/29 01:42:10;;;;;;;;;9.00;9.00;;;;;12.98;100.00;100920.78;6218535;22;45349;-84
2024/02/29 01:48:17;;;;;;;;;7.33;7.33;;;;;13.01;100.00;100902.13;6217398;22;45383;-84
2024/02/29 01:50:42;;;;;;;;;8.33;8.00;;;;;12.91;100.00;100902.06;6219624;22;45331;-84
2024/02/29 01:53:08;;;;;;;;;10.00;9.33;;;;;12.87;100.00;100894.91;6192192;22;45391;-84
2024/02/29 01:55:34;;;;;;;;;4.00;4.00;;;;;12.87;100.00;100893.13;6238333;22;45496;-83
2024/02/29 01:58:00;;;;;;;;;8.00;8.00;;;;;12.83;100.00;100890.44;6249330;22;45324;-83
2024/02/29 02:00:25;;;;;;;;;8.00;8.00;;;;;12.78;100.00;100877.03;6223150;22;45524;-82
2024/02/29 02:02:50;;;;;;;;;9.00;8.00;;;;;12.70;100.00;100865.41;6252545;22;45374;-82
2024/02/29 02:05:22;;;;;;;;;9.00;9.00;;;;;12.93;100.00;100869.16;6222627;22;48268;-82
2024/02/29 02:07:48;;;;;;;;;8.00;8.00;;;;;12.74;100.00;100872.56;6223391;22;45477;-81
2024/02/29 02:10:13;;;;;;;;;7.33;7.33;;;;;12.75;100.00;100861.00;6222556;22;45254;-81
2024/02/29 02:12:39;;;;;;;;;8.00;8.00;;;;;12.72;100.00;100863.66;6252121;22;45392;-82
2024/02/29 02:15:05;;;;;;;;;8.33;8.33;;;;;12.74;100.00;100848.53;6221819;22;47088;-82
2024/02/29 02:17:32;;;;;;;;;9.00;8.00;;;;;12.71;100.00;100849.41;6223415;22;45364;-82
2024/02/29 02:19:59;;;;;;;;;8.00;8.00;;;;;12.83;100.00;100851.28;6224412;22;45332;-82
2024/02/29 02:22:26;;;;;;;;;8.33;6.33;;;;;12.79;100.00;100847.69;6249187;22;45209;-82
2024/02/29 02:24:52;;;;;;;;;9.33;9.00;;;;;12.79;100.00;100847.69;6251705;22;45347;-82
2024/02/29 02:27:17;;;;;;;;;8.00;8.00;;;;;12.75;100.00;100839.66;6250008;22;45422;-82
2024/02/29 02:29:42;;;;;;;;;7.67;7.67;;;;;12.79;100.00;100845.03;6248696;22;58219;-82
2024/02/29 02:32:08;;;;;;;;;7.33;5.00;;;;;12.84;100.00;100834.38;6221907;22;45459;-83
2024/02/29 02:34:33;;;;;;;;;9.33;8.33;;;;;12.84;100.00;100829.03;6250201;22;45289;-82
2024/02/29 02:36:58;;;;;;;;;10.67;10.67;;;;;12.90;100.00;100821.06;6223789;22;45773;-81
2024/02/29 02:39:24;;;;;;;;;10.00;8.00;;;;;12.84;100.00;100823.69;6250082;22;45730;-82
2024/02/29 02:41:49;;;;;;;;;8.00;8.00;;;;;12.88;100.00;100812.16;6259974;22;44883;-82
2024/02/29 02:44:15;;;;;;;;;5.67;5.67;;;;;12.84;100.00;100796.13;6232661;22;46677;-82
2024/02/29 02:46:43;;;;;;;;;10.33;10.33;;;;;13.08;100.00;100804.25;6260335;22;44810;-82
2024/02/29 02:49:09;;;;;;;;;11.00;8.67;;;;;12.95;100.00;100808.66;6233610;22;44827;-81
2024/02/29 02:51:34;;;;;;;;;9.33;9.00;;;;;13.00;100.00;100790.84;6262199;22;45130;-82
2024/02/29 02:54:00;;;;;;;;;11.33;8.33;;;;;13.07;100.00;100797.13;6234303;22;47125;-82
2024/02/29 02:56:25;;;;;;;;;10.33;9.00;;;;;13.10;100.00;100786.47;6223027;22;45450;-79
2024/02/29 02:58:50;;;;;;;;;11.00;9.00;;;;;13.02;100.00;100773.06;6218701;22;45434;-80
2024/02/29 03:01:16;;;;;;;;;7.67;7.67;;;;;13.05;100.00;100763.28;6230376;22;44797;-83
2024/02/29 03:03:41;;;;;;;;;12.00;9.00;;;;;13.02;100.00;100765.06;6232754;22;47187;-82
2024/02/29 03:06:07;;;;;;;;;5.00;5.00;;;;;13.06;100.00;100767.75;6231730;22;45213;-82
2024/02/29 03:08:32;;;;;;;;;8.67;8.67;;;;;13.06;100.00;100767.75;6234527;22;44928;-82
2024/02/29 03:10:57;;;;;;;;;10.33;10.33;;;;;13.07;100.00;100756.16;6234603;22;44847;-82
2024/02/29 03:13:23;;;;;;;;;9.00;9.00;;;;;13.14;100.00;100758.88;6260125;22;46119;-82
2024/02/29 03:15:49;;;;;;;;;9.67;7.33;;;;;13.15;100.00;100757.13;6233347;22;45212;-82
2024/02/29 03:18:14;;;;;;;;;8.00;8.00;;;;;13.11;100.00;100757.97;6260661;22;44801;-82
2024/02/29 03:20:39;;;;;;;;;8.67;8.67;;;;;13.09;100.00;100749.06;6233585;22;44828;-82
2024/02/29 03:23:06;;;;;;;;;10.00;10.00;;;;;13.02;100.00;100734.81;6232855;22;47468;-81
2024/02/29 03:25:31;;;;;;;;;11.00;9.00;;;;;13.01;100.00;100731.25;6260580;22;44816;-82
2024/02/29 03:27:57;;;;;;;;;13.00;12.00;;;;;13.00;100.00;100729.44;6259821;22;44714;-82
2024/02/29 03:30:22;;;;;;;;;10.00;10.00;;;;;13.12;100.00;100735.72;6231722;22;44778;-82
2024/02/29 03:32:47;;;;;;;;;11.00;9.00;;;;;13.08;100.00;100728.59;6258823;22;45501;-82
2024/02/29 03:35:13;;;;;;;;;12.00;11.00;;;;;13.10;100.00;100721.50;6261117;22;45604;-82
2024/02/29 03:37:38;;;;;;;;;11.67;10.00;;;;;13.05;100.00;100717.91;6231719;22;44793;-82
2024/02/29 03:40:04;;;;;;;;;13.00;10.00;;;;;13.12;100.00;100711.72;6233660;22;44828;-82
2024/02/29 03:42:30;;;;;;;;;12.33;12.33;;;;;13.06;100.00;100709.03;6233954;22;47296;-82
2024/02/29 03:44:55;;;;;;;;;10.00;10.00;;;;;13.05;100.00;100707.22;6260632;22;45398;-82
2024/02/29 03:47:20;;;;;;;;;13.00;10.67;;;;;13.02;100.00;100700.97;6234879;22;44917;-83
2024/02/29 03:49:46;;;;;;;;;15.00;12.33;;;;;13.08;100.00;100701.91;6261607;22;44797;-83
2024/02/29 03:52:11;;;;;;;;;13.00;11.33;;;;;13.13;100.00;100700.16;6259496;22;45460;-83
2024/02/29 03:54:36;;;;;;;;;12.00;10.33;;;;;13.17;100.00;100701.94;6231638;22;45243;-82
2024/02/29 03:57:02;;;;;;;;;9.67;9.67;;;;;13.13;100.00;100690.34;6233204;22;45362;-82
2024/02/29 03:59:28;;;;;;;;;13.00;9.67;;;;;13.16;100.00;100705.50;6233476;22;45257;-82
2024/02/29 04:01:54;;;;;;;;;10.67;10.67;;;;;13.15;100.00;100698.38;6260870;22;45167;-82
2024/02/29 04:04:19;;;;;;;;;15.00;12.33;;;;;13.16;100.00;100706.38;6232126;22;44885;-82
2024/02/29 04:06:46;;;;;;;;;10.67;10.00;;;;;13.05;100.00;100697.47;6232403;22;45343;-82
2024/02/29 04:09:12;;;;;;;;;15.00;13.00;;;;;13.13;100.00;100702.81;6261759;22;44941;-83
2024/02/29 04:11:38;;;;;;;;;11.00;11.00;;;;;13.13;100.00;100700.16;6233462;22;47191;-83
2024/02/29 04:14:04;;;;;;;;;9.33;9.33;;;;;13.15;100.00;100693.03;6233396;22;45287;-83
2024/02/29 04:16:30;;;;;;;;;13.33;11.00;;;;;13.18;100.00;100690.34;6259832;22;45410;-83
2024/02/29 04:18:55;;;;;;;;;14.00;12.67;;;;;13.04;100.00;100668.06;6231818;22;44939;-79
2024/02/29 04:21:21;;;;;;;;;9.67;9.67;;;;;13.19;100.00;100687.69;6217711;22;47185;-80
2024/02/29 04:23:47;;;;;;;;;12.00;10.67;;;;;13.15;100.00;100677.00;6217564;22;45482;-80
2024/02/29 04:26:12;;;;;;;;;16.33;12.00;;;;;13.15;100.00;100671.69;6218739;22;45474;-79
2024/02/29 04:28:38;;;;;;;;;10.50;10.00;;;;;13.15;100.00;100682.34;6218868;22;52591;-80
2024/02/29 04:31:05;;;;;;;;;10.67;10.00;;;;;13.15;100.00;100667.22;6247193;22;45799;-82
2024/02/29 04:33:30;;;;;;;;;15.00;10.67;;;;;13.08;100.00;100665.41;6218818;22;45782;-79
2024/02/29 04:35:55;;;;;;;;;12.33;11.00;;;;;13.13;100.00;100673.44;6193878;22;45115;-79
2024/02/29 04:38:21;;;;;;;;;15.67;12.33;;;;;13.17;100.00;100668.13;6219239;22;45366;-79
2024/02/29 04:40:47;;;;;;;;;12.67;12.67;;;;;13.20;100.00;100661.88;6218100;22;47030;-79
2024/02/29 04:43:12;;;;;;;;;13.67;10.00;;;;;13.25;100.00;100659.22;6244842;22;45289;-80
2024/02/29 04:45:37;;;;;;;;;12.00;12.00;;;;;13.22;100.00;100657.44;6218680;22;45347;-79
2024/02/29 04:48:03;;;;;;;;;16.33;11.67;;;;;13.17;100.00;100643.19;6219529;22;45620;-78
2024/02/29 04:50:28;;;;;;;;;9.67;9.67;;;;;13.20;100.00;100648.53;6249784;22;45305;-80
2024/02/29 04:52:53;;;;;;;;;9.00;9.00;;;;;13.23;100.00;100648.56;6225289;22;45485;-78
2024/02/29 04:55:19;;;;;;;;;9.33;9.33;;;;;13.31;100.00;100649.47;6248924;22;45238;-78
2024/02/29 04:57:44;;;;;;;;;11.67;10.00;;;;;13.33;100.00;100645.03;6250761;22;45328;-79
2024/02/29 05:00:10;;;;;;;;;8.67;8.67;;;;;13.38;100.00;100640.56;6252971;22;45310;-79
2024/02/29 05:02:36;;;;;;;;;9.00;9.00;;;;;13.31;100.00;100633.47;6226751;22;45385;-79
2024/02/29 05:05:03;;;;;;;;;8.00;8.00;;;;;13.26;100.00;100637.84;6226448;22;45345;-80
2024/02/29 05:07:29;;;;;;;;;9.00;9.00;;;;;13.24;100.00;100630.72;6252443;22;45337;-81
2024/02/29 05:09:54;;;;;;;;;9.00;9.00;;;;;13.29;100.00;100618.25;6221671;22;46902;-79
2024/02/29 05:12:22;;;;;;;;;8.00;8.00;;;;;13.28;100.00;100609.38;6220324;22;45332;-80
2024/02/29 05:14:47;;;;;;;;;4.67;2.00;;;;;13.26;100.00;100629.84;6248778;22;45268;-79
2024/02/29 05:28:06;;;;;;;;;8.67;8.00;;;;;13.57;100.00;100612.09;6250244;22;45137;-79
2024/02/29 05:30:31;;;;;;;;;8.00;8.00;;;;;13.34;100.00;100608.53;6221361;22;45373;-80
2024/02/29 05:32:57;;;;;;;;;8.00;8.00;;;;;13.38;100.00;100610.31;6222163;22;45473;-79
2024/02/29 05:35:25;;;;;;;;;7.33;7.33;;;;;13.39;100.00;100606.72;6245637;22;45294;-79
2024/02/29 05:37:50;;;;;;;;;9.00;8.00;;;;;13.39;100.00;100596.94;6220583;22;45368;-80
2024/02/29 05:40:15;;;;;;;;;7.33;6.33;;;;;13.37;100.00;100598.72;6248399;22;45415;-80
2024/02/29 05:42:41;;;;;;;;;8.00;6.33;;;;;13.30;100.00;100586.25;6246595;22;46128;-79
2024/02/29 05:45:08;;;;;;;;;5.00;5.00;;;;;13.35;100.00;100589.84;6245462;22;45418;-80
2024/02/29 05:47:33;;;;;;;;;8.00;7.00;;;;;13.35;100.00;100587.16;6218876;22;44853;-81
2024/02/29 05:49:59;;;;;;;;;7.67;6.33;;;;;13.32;100.00;100583.59;6246594;22;45438;-80
2024/02/29 05:52:24;;;;;;;;;9.33;8.00;;;;;13.25;100.00;100571.06;6219277;22;47038;-79
2024/02/29 05:54:50;;;;;;;;;4.33;4.33;;;;;13.30;100.00;100586.25;6218983;22;45440;-79
2024/02/29 05:57:16;;;;;;;;;7.00;5.00;;;;;13.31;100.00;100582.72;6218097;22;45298;-79
2024/02/29 05:59:41;;;;;;;;;8.67;7.00;;;;;13.39;100.00;100575.59;6246580;22;45333;-80
2024/02/29 06:02:09;;;;;;;;;7.67;7.67;;;;;13.41;100.00;100570.22;6218219;22;46939;-80
2024/02/29 06:04:34;;;;;;;;;6.33;5.00;;;;;13.37;100.00;100573.78;6218943;22;44715;-79
2024/02/29 06:07:00;;;;;;;;;7.00;6.33;;;;;13.39;100.00;100569.31;6219702;22;45850;-80
2024/02/29 06:09:25;;;;;;;;;5.33;4.33;;;;;13.39;100.00;100554.22;6247290;22;44972;-80
2024/02/29 06:11:50;;;;;;;;;10.00;10.00;;;;;13.39;100.00;100548.88;6217876;22;47310;-80
2024/02/29 06:14:17;;;;;;;;;7.33;4.00;;;;;13.27;100.00;100543.50;6216724;22;45327;-80
2024/02/29 06:16:42;;;;;;;;;9.33;9.00;;;;;13.29;100.00;100544.44;6217781;22;45368;-79
2024/02/29 06:19:08;;;;;;;;;8.33;7.67;;;;;13.34;100.00;100547.97;6217622;22;45690;-84
2024/02/29 06:21:33;;;;;;;;;8.00;8.00;;;;;13.39;100.00;100543.53;6220388;22;46641;-84
2024/02/29 06:23:59;;;;;;;;;6.33;6.33;;;;;13.47;100.00;100545.28;6247637;22;44808;-84
2024/02/29 06:26:24;;;;;;;;;6.33;6.33;;;;;13.39;100.00;100543.53;6223852;22;45383;-84
2024/02/29 06:28:49;;;;;;;;;10.33;9.00;;;;;13.42;100.00;100547.09;6254964;22;44878;-85
2024/02/29 06:31:15;;;;;;;;;10.00;9.00;;;;;13.42;100.00;100539.97;6226155;22;45833;-85
2024/02/29 06:33:42;;;;;;;;;5.67;5.67;;;;;13.37;100.00;100529.28;6255763;22;44831;-84
2024/02/29 06:36:07;;;;;;;;;6.33;5.67;;;;;13.38;100.00;100531.03;6227619;22;45332;-84
2024/02/29 06:38:32;;;;;;;;;5.67;5.00;;;;;13.39;100.00;100535.50;6226195;22;45238;-85
2024/02/29 06:40:58;;;;;;;;;7.33;7.33;;;;;13.40;100.00;100521.25;6253974;22;45275;-85
2024/02/29 06:43:23;;;;;;;;;9.00;6.33;;;;;13.30;100.00;100516.81;6253150;22;45577;-84
2024/02/29 06:45:50;;;;;;;;;8.67;8.00;;;;;13.33;100.00;100515.91;6253066;22;45323;-86
2024/02/29 06:48:17;;;;;;;;;5.00;4.00;;;;;13.33;100.00;100506.13;6253366;22;45373;-84
2024/02/29 06:50:43;;;;;;;;;3.50;3.50;;;;;13.35;100.00;100520.38;6250879;22;47835;-85
2024/02/29 06:53:09;;;;;;;;;7.33;7.33;;;;;13.26;100.00;100509.66;6223958;22;45779;-84
2024/02/29 06:55:34;;;;;;;;;6.67;6.67;;;;;13.26;100.00;100520.34;6250423;22;44979;-84
2024/02/29 06:58:00;;;;;;;;;7.00;7.00;;;;;13.27;100.00;100511.47;6250245;22;45433;-83
2024/02/29 07:00:26;;;;;;;;;4.00;4.00;;;;;13.31;100.00;100521.28;6220409;22;47263;-83
2024/02/29 07:02:52;;;;;;;;;6.33;6.33;;;;;13.38;100.00;100525.69;6250311;22;45288;-83
2024/02/29 07:05:17;;;;;;;;;7.00;7.00;;;;;13.44;100.00;100523.94;6250192;22;45391;-83
2024/02/29 07:07:43;;;;;;;;;7.00;7.00;;;;;13.50;100.00;100523.94;6251603;22;45253;-85
2024/02/29 07:10:11;;;;;;;;;6.67;6.67;;;;;13.48;100.00;100518.56;6223549;22;47188;-85
2024/02/29 07:12:37;;;;;;;;;6.33;6.33;;;;;13.35;100.00;100515.03;6222234;22;45483;-85
2024/02/29 07:15:04;;;;;;;;;7.67;7.67;;;;;13.43;100.00;100517.69;6222111;22;45390;-84
2024/02/29 07:17:30;;;;;;;;;5.67;5.67;;;;;13.38;100.00;100499.00;6196842;22;44805;-83
2024/02/29 07:19:55;;;;;;;;;7.00;7.00;;;;;13.52;100.00;100500.75;6249098;22;45247;-84
2024/02/29 07:22:21;;;;;;;;;8.33;7.33;;;;;13.53;100.00;100498.09;6249411;22;44709;-83
2024/02/29 07:24:46;;;;;;;;;8.33;6.67;;;;;13.55;100.00;100498.06;6250876;22;44760;-84
2024/02/29 07:27:14;;;;;;;;;7.67;7.67;;;;;13.57;100.00;100482.94;6249951;22;45209;-83
2024/02/29 07:29:46;;;;;;;;;8.33;8.33;;;;;13.75;100.00;100498.91;6248816;22;45400;-84
2024/02/29 07:32:12;;;;;;;;;7.00;7.00;;;;;13.57;100.00;100491.84;6250367;22;44745;-84
2024/02/29 07:34:37;;;;;;;;;9.00;9.00;;;;;13.51;100.00;100493.63;6197946;22;45312;-84
2024/02/29 07:37:03;;;;;;;;;9.33;6.33;;;;;13.51;100.00;100491.88;6222717;22;45237;-85
2024/02/29 07:39:28;;;;;;;;;9.33;9.33;;;;;13.54;100.00;100482.94;6222074;22;47180;-84
2024/02/29 07:41:54;;;;;;;;;8.33;8.33;;;;;13.52;100.00;100490.09;6249877;22;45209;-85
2024/02/29 07:44:34;;;;;;;;;9.33;9.33;;;;;13.50;100.00;100473.16;6249468;22;45255;-84
2024/02/29 07:46:59;;;;;;;;;8.67;8.00;;;;;13.53;100.00;100487.41;6250767;22;45275;-84
2024/02/29 07:49:31;;;;;;;;;7.00;7.00;;;;;13.54;100.00;100458.91;6222317;22;47149;-84
2024/02/29 07:51:57;;;;;;;;;8.00;8.00;;;;;13.42;100.00;100467.84;6222035;22;45398;-84
2024/02/29 07:55:03;;;;;;;;;7.33;7.33;;;;;13.62;100.00;100473.13;6250386;22;45276;-84
2024/02/29 07:57:36;;;;;;;;;9.33;9.00;;;;;13.54;100.00;100469.59;6261034;22;45075;-85
2024/02/29 08:00:03;;;;;;;;;8.33;8.33;;;;;13.20;100.00;100446.47;6257654;22;45318;-85
2024/02/29 08:02:29;;;;;;;;;10.00;8.00;;;;;13.20;100.00;100458.94;6223532;22;45436;-83
2024/02/29 08:04:54;;;;;;;;;8.67;8.67;;;;;13.18;100.00;100448.25;6225744;22;47859;-84
2024/02/29 08:07:20;;;;;;;;;0.00;0.00;;;;;13.13;100.00;100443.81;6223010;22;44937;-83
2024/02/29 08:09:51;;;;;;;;;9.67;8.00;;;;;13.18;100.00;100463.38;6235761;22;47869;-83
2024/02/29 08:12:17;;;;;;;;;11.00;11.00;;;;;12.80;100.00;100409.16;6177023;22;46643;-82
2024/02/29 08:14:47;;;;;;;;;11.67;9.00;;;;;13.04;100.00;100422.47;6241540;22;44936;-83
2024/02/29 08:19:53;;;;;;;;;9.00;9.00;;;;;13.07;100.00;100449.13;6213750;22;46028;-82
2024/02/29 08:22:20;;;;;;;;;10.67;10.67;;;;;12.97;100.00;100426.94;6162546;22;46103;-82
2024/02/29 08:24:45;;;;;;;;;12.33;10.00;;;;;12.89;100.00;100412.69;6234228;22;44859;-82
2024/02/29 08:27:10;;;;;;;;;10.67;10.00;;;;;12.98;100.00;100423.34;6208216;22;44853;-82
2024/02/29 08:29:39;;;;;;;;;11.67;9.67;;;;;13.10;100.00;100442.03;6208602;22;47345;-83
2024/02/29 08:32:07;;;;;;;;;12.33;10.67;;;;;13.01;100.00;100402.00;6209787;22;44909;-83
2024/02/29 08:35:10;;;;;;;;;8.00;8.00;;;;;13.31;100.00;100430.47;6232963;22;44749;-82
2024/02/29 08:41:05;;;;;;;;;9.67;7.33;;;;;12.98;100.00;100396.66;6113475;23;45523;-83
2024/02/29 08:43:33;;;;;;;;;7.00;5.00;;;;;13.14;100.00;100405.53;6149686;22;44924;-83
2024/02/29 08:46:16;;;;;;;;;9.33;6.67;;;;;13.26;100.00;100385.94;6236173;22;44737;-82
2024/02/29 08:48:44;;;;;;;;;7.33;7.00;;;;;13.21;100.00;100388.63;6232216;22;44919;-84
2024/02/29 08:51:13;;;;;;;;;6.33;4.67;;;;;13.44;100.00;100399.25;6228951;22;45470;-82
2024/02/29 08:53:39;;;;;;;;;5.00;5.00;;;;;13.27;100.00;100383.25;6264991;22;45135;-82
2024/02/29 08:56:05;;;;;;;;;8.00;7.00;;;;;13.22;100.00;100371.69;6237980;22;44815;-84
2024/02/29 08:59:01;;;;;;;;;8.00;7.00;;;;;13.32;100.00;100353.91;6239723;22;44859;-82
2024/02/29 09:06:44;;;;;;;;;4.00;4.00;;;;;13.19;100.00;100361.03;6212352;22;46400;-83
2024/02/29 09:19:41;;;;;;;;;8.33;8.33;;;;;13.49;100.00;100362.75;6230713;22;44837;-83
2024/02/29 09:22:09;;;;;;;;;5.00;5.00;;;;;13.42;100.00;100376.13;6207952;22;47384;-83
2024/02/29 09:24:38;;;;;;;;;7.33;5.67;;;;;13.59;100.00;100369.81;6208812;22;45188;-83
2024/02/29 09:27:20;;;;;;;;;;;;;;;;;;;;;
2024/02/29 09:34:56;;;;;;;;;8.00;8.00;;;;;13.54;100.00;100338.69;6235866;22;46678;-82
2024/02/29 09:37:27;;;;;;;;;4.00;4.00;;;;;13.51;100.00;100336.91;6240335;22;44852;-82
2024/02/29 09:42:51;;;;;;;;;5.00;5.00;;;;;13.78;100.00;100338.53;6223255;22;46924;-84
2024/02/29 09:45:23;;;;;;;;;5.67;5.67;;;;;13.53;100.00;100311.09;6184772;22;45467;-83
2024/02/29 09:50:31;;;;;;;;;5.00;4.67;;;;;13.75;100.00;100335.88;6226240;22;46325;-82
2024/02/29 09:52:58;;;;;;;;;6.33;6.33;;;;;13.58;100.00;100316.38;6234279;22;46887;-84
2024/02/29 09:55:24;;;;;;;;;8.00;8.00;;;;;13.54;100.00;100322.66;6265392;22;45100;-82
2024/02/29 09:57:50;;;;;;;;;3.67;3.67;;;;;13.57;100.00;100315.50;6234977;22;44784;-82
2024/02/29 10:00:20;;;;;;;;;7.00;4.67;;;;;13.76;100.00;100312.72;6234921;22;44749;-82
2024/02/29 10:02:48;;;;;;;;;3.67;3.00;;;;;13.43;100.00;100282.59;6229881;22;46677;-82
2024/02/29 10:05:16;;;;;;;;;5.00;5.00;;;;;13.62;100.00;100291.44;6232123;22;45321;-83
2024/02/29 10:07:47;;;;;;;;;4.00;4.00;;;;;13.77;100.00;100299.34;6230734;22;44824;-83
2024/02/29 10:10:14;;;;;;;;;4.33;4.33;;;;;13.88;100.00;100301.09;6227911;22;45367;-82
2024/02/29 10:12:46;;;;;;;;;3.00;3.00;;;;;14.13;100.00;100308.00;6253521;22;46239;-82
2024/02/29 10:15:11;;;;;;;;;4.00;4.00;;;;;14.04;100.00;100296.50;6205066;22;44882;-82
2024/02/29 10:17:38;;;;;;;;;4.33;4.33;;;;;14.11;100.00;100287.53;6232642;22;44772;-84
2024/02/29 10:20:24;;;;;;;;;4.67;4.00;;;;;13.96;100.00;100260.03;6258282;22;45006;-82
2024/02/29 10:22:51;;;;;;;;;7.00;6.67;;;;;14.18;100.00;100295.50;6257509;22;46040;-82
2024/02/29 10:25:18;;;;;;;;;12.00;12.00;;;;;14.10;100.00;100275.06;6265110;22;45009;-83
2024/02/29 10:27:46;;;;;;;;;5.00;5.00;;;;;14.02;100.00;100261.78;6236096;22;44785;-82
2024/02/29 10:30:17;;;;;;;;;6.25;5.50;;;;;14.19;100.00;100269.63;6236822;22;44863;-83
2024/02/29 10:32:47;;;;;;;;;8.00;4.00;;;;;14.07;100.00;100245.69;6206545;22;47089;-82
2024/02/29 10:35:22;;;;;;;;;4.67;4.67;;;;;14.26;100.00;100275.81;6259876;22;45817;-82
2024/02/29 10:38:14;;;;;;;;;8.00;8.00;;;;;14.29;100.00;100265.97;6236263;22;44765;-83
2024/02/29 10:40:40;;;;;;;;;5.67;5.67;;;;;13.98;100.00;100241.31;6231766;22;44998;-83
2024/02/29 10:43:11;;;;;;;;;6.33;3.67;;;;;14.16;100.00;100265.22;6227668;22;47014;-83
2024/02/29 10:46:02;;;;;;;;;5.00;5.00;;;;;14.24;100.00;100272.28;6254034;22;44804;-83
2024/02/29 10:48:27;;;;;;;;;8.33;8.33;;;;;14.13;100.00;100264.34;6233234;22;44879;-83
2024/02/29 10:51:08;;;;;;;;;5.00;2.67;;;;;14.28;100.00;100257.97;6254128;22;45413;-83
2024/02/29 10:53:56;;;;;;;;;2.67;2.67;;;;;14.43;100.00;100257.84;6230089;22;46836;-85
2024/02/29 10:56:37;;;;;;;;;9.00;7.00;;;;;14.41;100.00;100255.16;6226932;22;45326;-83
2024/02/29 10:59:07;;;;;;;;;7.00;7.00;;;;;14.43;100.00;100252.50;6257421;22;45214;-84
2024/02/29 11:01:40;;;;;;;;;6.33;5.67;;;;;14.37;100.00;100223.13;6237740;22;44828;-85
2024/02/29 11:04:06;;;;;;;;;7.00;4.33;;;;;14.32;100.00;100241.91;6237969;22;47463;-83
2024/02/29 11:06:52;;;;;;;;;;;;;;;;;;;;;
2024/02/29 11:09:38;;;;;;;;;5.00;5.00;;;;;14.62;100.00;100244.31;6253240;22;68147;-82
2024/02/29 11:12:11;;;;;;;;;7.33;7.00;;;;;14.47;100.00;100214.09;6227962;22;45347;-83
2024/02/29 11:14:36;;;;;;;;;11.00;10.00;;;;;14.38;100.00;100206.16;6224173;22;47235;-84
2024/02/29 11:17:09;;;;;;;;;9.00;6.00;;;;;14.75;100.00;100237.94;6224594;22;45347;-84
2024/02/29 11:19:40;;;;;;;;;7.00;7.00;;;;;14.76;100.00;100228.97;6236855;22;44991;-85
2024/02/29 11:22:12;;;;;;;;;10.00;10.00;;;;;14.48;100.00;100191.81;6257530;22;45428;-84
2024/02/29 11:24:40;;;;;;;;;8.00;8.00;;;;;14.63;100.00;100205.94;6230245;22;46580;-84
2024/02/29 11:27:33;;;;;;;;;9.00;9.00;;;;;14.95;100.00;100224.31;6229155;22;45610;-84
2024/02/29 11:30:21;;;;;;;;;10.00;9.00;;;;;14.98;100.00;100208.19;6238409;22;45367;-85
2024/02/29 11:32:50;;;;;;;;;10.00;10.00;;;;;14.86;100.00;100190.47;6260741;22;44774;-84
2024/02/29 11:35:17;;;;;;;;;12.00;12.00;;;;;14.98;100.00;100201.03;6232801;22;47816;-84
2024/02/29 11:37:46;;;;;;;;;8.67;8.67;;;;;15.09;100.00;100189.28;6233699;22;44842;-84
2024/02/29 11:40:19;;;;;;;;;10.67;8.33;;;;;15.23;100.00;100203.41;6233011;22;45544;-85
2024/02/29 11:42:45;;;;;;;;;8.67;7.67;;;;;15.02;100.00;100187.63;6232143;22;45265;-83
2024/02/29 11:45:21;;;;;;;;;8.00;6.00;;;;;15.34;100.00;100198.78;6252319;22;48272;-83
2024/02/29 11:47:47;;;;;;;;;12.00;10.33;;;;;15.05;100.00;100182.22;6225543;22;46178;-85
2024/02/29 11:50:25;;;;;;;;;6.00;6.00;;;;;14.96;100.00;100159.13;6251643;22;44852;-84
2024/02/29 11:53:22;;;;;;;;;10.00;10.00;;;;;15.17;100.00;100152.63;6226278;22;45534;-84
2024/02/29 11:55:49;;;;;;;;;9.00;9.00;;;;;15.05;100.00;100150.97;6252475;22;45577;-83
2024/02/29 11:58:17;;;;;;;;;11.00;11.00;;;;;15.14;100.00;100171.38;6226888;22;44857;-84
2024/02/29 12:00:45;;;;;;;;;9.00;6.00;;;;;15.01;100.00;100138.53;6254791;22;45225;-82
2024/02/29 12:03:15;;;;;;;;;10.00;10.00;;;;;15.22;100.00;100163.25;6229096;22;45351;-83
2024/02/29 12:05:43;;;;;;;;;14.33;11.00;;;;;15.20;100.00;100150.75;6233264;22;47643;-83
2024/02/29 12:08:15;;;;;;;;;9.00;9.00;;;;;15.33;100.00;100135.41;6230501;22;44800;-85